Time;durP1;ratioP1;P1;durP2;ratioP2;P2;SDS_P1;SDS_P2;PMS_P1;PMS_P2;Temp;Humidity;BMP_temperature;BMP_pressure;BME280_temperature;BME280_humidity;BME280_pressure;Samples;Min_cycle;Max_cycle;Signal;HPM_P1;HPM_P2
2021/12/02 00:01:30;;;;;;;5.45;1.95;;;;;;;;;;5010504;28;20408;-84
2021/12/02 00:03:56;;;;;;;6.38;2.25;;;;;;;;;;5010857;28;20041;-85
2021/12/02 00:06:23;;;;;;;6.22;2.10;;;;;;;;;;5010651;28;20053;-85
2021/12/02 00:08:51;;;;;;;3.97;2.10;;;;;;;;;;5010646;28;20038;-85
2021/12/02 00:11:17;;;;;;;5.85;2.00;;;;;;;;;;5010949;28;20041;-85
2021/12/02 00:16:49;;;;;;;4.63;2.38;;;;;;;;;;5014533;28;20037;-85
2021/12/02 00:22:02;;;;;;;4.78;1.90;;;;;;;;;;5011870;28;20512;-84
2021/12/02 00:24:34;;;;;;;5.50;2.03;;;;;;;;;;5011125;28;20054;-85
2021/12/02 00:27:03;;;;;;;5.05;1.80;;;;;;;;;;5011184;28;20041;-85
2021/12/02 00:29:30;;;;;;;4.07;1.80;;;;;;;;;;5011318;28;20034;-85
2021/12/02 00:32:01;;;;;;;3.83;1.55;;;;;;;;;;5011006;28;20495;-85
2021/12/02 00:34:29;;;;;;;3.58;1.40;;;;;;;;;;5010682;28;20049;-85
2021/12/02 00:36:57;;;;;;;2.38;1.20;;;;;;;;;;5010812;28;20034;-85
2021/12/02 00:39:23;;;;;;;4.18;1.40;;;;;;;;;;5010983;28;20045;-84
2021/12/02 00:41:49;;;;;;;2.13;0.93;;;;;;;;;;5009575;28;20042;-84
2021/12/02 00:44:18;;;;;;;3.75;1.20;;;;;;;;;;5013654;28;20038;-84
2021/12/02 00:46:45;;;;;;;6.88;1.50;;;;;;;;;;5013911;28;20057;-84
2021/12/02 00:49:15;;;;;;;5.68;1.30;;;;;;;;;;5013593;28;20042;-85
2021/12/02 00:51:46;;;;;;;3.22;1.08;;;;;;;;;;5013296;28;20047;-85
2021/12/02 00:54:13;;;;;;;1.23;1.00;;;;;;;;;;5013745;28;20049;-84
2021/12/02 00:56:40;;;;;;;2.13;1.00;;;;;;;;;;5013895;28;20034;-85
2021/12/02 00:59:07;;;;;;;0.80;0.80;;;;;;;;;;5014267;28;20384;-85
2021/12/02 01:01:36;;;;;;;4.20;1.20;;;;;;;;;;5013980;28;20046;-85
2021/12/02 01:04:13;;;;;;;2.10;1.30;;;;;;;;;;5014415;28;20038;-85
2021/12/02 01:06:40;;;;;;;4.00;1.40;;;;;;;;;;5016527;28;20037;-85
2021/12/02 01:09:09;;;;;;;2.08;1.10;;;;;;;;;;5013878;28;20404;-85
2021/12/02 01:11:35;;;;;;;4.13;1.17;;;;;;;;;;5013975;28;20042;-85
2021/12/02 01:14:02;;;;;;;7.20;1.40;;;;;;;;;;5014036;28;20476;-85
2021/12/02 01:16:28;;;;;;;2.22;1.50;;;;;;;;;;5012160;28;20042;-85
2021/12/02 01:18:54;;;;;;;4.95;1.63;;;;;;;;;;5013518;28;20060;-85
2021/12/02 01:21:24;;;;;;;4.53;1.92;;;;;;;;;;5012277;28;20041;-84
2021/12/02 01:23:52;;;;;;;4.00;1.60;;;;;;;;;;5013187;28;20475;-84
2021/12/02 01:26:19;;;;;;;4.80;1.70;;;;;;;;;;5013639;28;20113;-84
2021/12/02 01:28:48;;;;;;;4.93;1.90;;;;;;;;;;5013566;28;20471;-85
2021/12/02 01:31:14;;;;;;;7.63;1.90;;;;;;;;;;5013552;28;20046;-86
2021/12/02 01:33:42;;;;;;;7.05;2.17;;;;;;;;;;5011953;28;20068;-85
2021/12/02 01:36:09;;;;;;;8.85;2.65;;;;;;;;;;5013527;28;20404;-83
2021/12/02 01:38:35;;;;;;;6.57;2.10;;;;;;;;;;5011734;28;20042;-84
2021/12/02 01:41:03;;;;;;;7.00;2.38;;;;;;;;;;5013531;28;20061;-84
2021/12/02 01:43:50;;;;;;;5.25;2.20;;;;;;;;;;5013557;28;20041;-84
2021/12/02 01:46:23;;;;;;;5.65;2.15;;;;;;;;;;5013315;28;20042;-85
2021/12/02 01:49:15;;;;;;;4.20;1.92;;;;;;;;;;5013823;28;20507;-85
2021/12/02 01:51:42;;;;;;;;;;;;;;;;;;5013541;28;20041;-85
2021/12/02 01:54:14;;;;;;;6.80;1.70;;;;;;;;;;5012794;28;20272;-86
2021/12/02 01:56:51;;;;;;;4.57;1.30;;;;;;;;;;5035934;28;20113;-85
2021/12/02 01:59:21;;;;;;;4.43;1.13;;;;;;;;;;5036364;28;20034;-85
2021/12/02 02:01:51;;;;;;;3.92;1.00;;;;;;;;;;5018618;28;20041;-85
2021/12/02 02:04:18;;;;;;;3.75;1.25;;;;;;;;;;5019110;28;20053;-85
2021/12/02 02:07:00;;;;;;;2.42;0.98;;;;;;;;;;5018016;28;20037;-85
2021/12/02 02:09:32;;;;;;;4.03;1.00;;;;;;;;;;5026435;28;20045;-85
2021/12/02 02:12:00;;;;;;;3.03;1.08;;;;;;;;;;5037336;28;20036;-85
2021/12/02 02:14:27;;;;;;;2.72;1.00;;;;;;;;;;5037439;28;20061;-85
2021/12/02 02:16:55;;;;;;;4.35;0.90;;;;;;;;;;5023313;28;20073;-85
2021/12/02 02:19:21;;;;;;;7.75;0.98;;;;;;;;;;5033963;28;20507;-85
2021/12/02 02:21:47;;;;;;;2.95;0.93;;;;;;;;;;5015908;28;20049;-85
2021/12/02 02:24:15;;;;;;;3.28;1.15;;;;;;;;;;5014071;28;20038;-85
2021/12/02 02:26:42;;;;;;;6.05;0.98;;;;;;;;;;5014327;28;20038;-84
2021/12/02 02:29:10;;;;;;;4.88;1.02;;;;;;;;;;5014086;28;20441;-85
2021/12/02 02:31:38;;;;;;;2.80;1.00;;;;;;;;;;5013988;28;20042;-85
2021/12/02 02:34:04;;;;;;;7.32;1.20;;;;;;;;;;5013511;28;20512;-86
2021/12/02 02:36:33;;;;;;;3.90;0.98;;;;;;;;;;5013331;28;20037;-85
2021/12/02 02:39:02;;;;;;;2.47;0.90;;;;;;;;;;5013047;28;20044;-85
2021/12/02 02:41:33;;;;;;;7.28;1.10;;;;;;;;;;5012988;28;20069;-85
2021/12/02 02:44:00;;;;;;;9.68;1.50;;;;;;;;;;5013472;28;20421;-86
2021/12/02 02:46:31;;;;;;;6.65;1.38;;;;;;;;;;5012693;28;20348;-86
2021/12/02 02:48:59;;;;;;;5.15;1.10;;;;;;;;;;5011486;28;20049;-85
2021/12/02 02:51:26;;;;;;;3.75;0.98;;;;;;;;;;5010379;28;20396;-85
2021/12/02 02:54:00;;;;;;;6.35;1.25;;;;;;;;;;5010381;28;20373;-86
2021/12/02 02:56:29;;;;;;;4.63;1.25;;;;;;;;;;5013895;28;20038;-85
2021/12/02 03:06:37;;;;;;;6.40;1.35;;;;;;;;;;5030455;28;20036;-85
2021/12/02 03:09:18;;;;;;;3.05;0.93;;;;;;;;;;5034834;28;20113;-85
2021/12/02 03:11:48;;;;;;;9.70;1.35;;;;;;;;;;5034237;28;20040;-86
2021/12/02 03:14:20;;;;;;;7.95;1.38;;;;;;;;;;5034791;28;20034;-86
2021/12/02 03:16:46;;;;;;;11.13;2.00;;;;;;;;;;5017896;28;20038;-86
2021/12/02 03:19:25;;;;;;;6.53;1.13;;;;;;;;;;5012124;28;20140;-85
2021/12/02 03:21:56;;;;;;;5.30;1.58;;;;;;;;;;5011920;28;20511;-85
2021/12/02 03:24:25;;;;;;;6.32;1.20;;;;;;;;;;5011999;28;20516;-86
2021/12/02 03:26:51;;;;;;;4.28;1.00;;;;;;;;;;5011236;28;20034;-85
2021/12/02 03:29:17;;;;;;;3.13;0.93;;;;;;;;;;5009807;28;20448;-85
2021/12/02 03:31:43;;;;;;;3.53;1.20;;;;;;;;;;5010829;28;20111;-85
2021/12/02 03:34:09;;;;;;;6.00;1.20;;;;;;;;;;5011209;28;20129;-85
2021/12/02 03:36:36;;;;;;;3.13;1.05;;;;;;;;;;5010710;28;20492;-85
2021/12/02 03:39:04;;;;;;;4.97;0.82;;;;;;;;;;5010648;28;20042;-85
2021/12/02 03:41:31;;;;;;;4.38;1.02;;;;;;;;;;5010273;28;20037;-85
2021/12/02 03:43:57;;;;;;;5.00;1.25;;;;;;;;;;5010569;28;20041;-85
2021/12/02 03:46:24;;;;;;;6.28;1.30;;;;;;;;;;5010225;28;20077;-85
2021/12/02 03:48:53;;;;;;;3.42;1.13;;;;;;;;;;5010784;28;20034;-85
2021/12/02 03:51:19;;;;;;;6.53;1.10;;;;;;;;;;5010683;28;20042;-85
2021/12/02 03:53:46;;;;;;;4.05;0.90;;;;;;;;;;5009903;28;20500;-85
2021/12/02 03:56:12;;;;;;;4.07;0.90;;;;;;;;;;5010256;28;20064;-85
2021/12/02 03:58:43;;;;;;;4.53;1.02;;;;;;;;;;5010200;28;20029;-85
2021/12/02 04:01:10;;;;;;;3.80;1.08;;;;;;;;;;5010420;28;20484;-86
2021/12/02 04:03:37;;;;;;;6.82;1.27;;;;;;;;;;5008934;28;20373;-85
2021/12/02 04:06:04;;;;;;;3.15;1.40;;;;;;;;;;5010537;28;20133;-85
2021/12/02 04:09:19;;;;;;;5.47;1.80;;;;;;;;;;5010654;28;20034;-85
2021/12/02 04:17:02;;;;;;;3.60;1.30;;;;;;;;;;4979534;28;20957;-85
2021/12/02 04:19:28;;;;;;;3.55;1.00;;;;;;;;;;5028285;28;20073;-85
2021/12/02 04:21:57;;;;;;;4.60;1.10;;;;;;;;;;5014161;28;20036;-85
2021/12/02 04:24:25;;;;;;;4.53;0.90;;;;;;;;;;5014284;28;20044;-85
2021/12/02 04:26:53;;;;;;;2.42;1.05;;;;;;;;;;5019362;28;20045;-85
2021/12/02 04:29:18;;;;;;;4.95;1.77;;;;;;;;;;5014263;28;20029;-85
2021/12/02 04:31:46;;;;;;;2.05;1.20;;;;;;;;;;5014525;28;20425;-85
2021/12/02 04:34:13;;;;;;;5.60;2.10;;;;;;;;;;5014061;28;20356;-86
2021/12/02 04:36:39;;;;;;;3.70;1.35;;;;;;;;;;5013961;28;20161;-86
2021/12/02 04:39:06;;;;;;;5.28;2.38;;;;;;;;;;5013901;28;20048;-85
2021/12/02 04:41:32;;;;;;;3.28;1.50;;;;;;;;;;5013884;28;20346;-86
2021/12/02 04:43:58;;;;;;;5.35;1.50;;;;;;;;;;5013215;28;20037;-85
2021/12/02 04:46:24;;;;;;;4.35;1.30;;;;;;;;;;5012136;28;20038;-85
2021/12/02 04:48:50;;;;;;;1.65;0.70;;;;;;;;;;5010989;28;20099;-84
2021/12/02 04:51:16;;;;;;;6.47;1.45;;;;;;;;;;4997877;28;20040;-83
2021/12/02 04:53:42;;;;;;;3.05;0.80;;;;;;;;;;4993730;28;20409;-83
2021/12/02 04:56:08;;;;;;;2.08;0.90;;;;;;;;;;5008512;28;20042;-83
2021/12/02 04:58:34;;;;;;;4.05;1.13;;;;;;;;;;5008518;28;20070;-83
2021/12/02 05:00:59;;;;;;;4.95;1.13;;;;;;;;;;5005555;28;20072;-83
2021/12/02 05:03:25;;;;;;;6.43;1.30;;;;;;;;;;5032028;28;20462;-83
2021/12/02 05:05:51;;;;;;;1.88;0.90;;;;;;;;;;5032119;28;20048;-82
2021/12/02 05:08:17;;;;;;;4.53;1.23;;;;;;;;;;5025539;28;20065;-84
2021/12/02 05:10:45;;;;;;;6.18;1.40;;;;;;;;;;5016723;28;20443;-82
2021/12/02 05:13:10;;;;;;;1.67;0.75;;;;;;;;;;5013172;28;20049;-83
2021/12/02 05:15:36;;;;;;;1.70;0.90;;;;;;;;;;5013979;28;20116;-83
2021/12/02 05:18:02;;;;;;;4.57;0.95;;;;;;;;;;5013823;28;20475;-83
2021/12/02 05:20:28;;;;;;;3.20;1.00;;;;;;;;;;5013425;28;20053;-83
2021/12/02 05:22:54;;;;;;;4.00;0.98;;;;;;;;;;5012516;28;20038;-83
2021/12/02 05:25:20;;;;;;;3.78;0.90;;;;;;;;;;5012958;28;20042;-83
2021/12/02 05:27:46;;;;;;;2.22;1.00;;;;;;;;;;5024451;28;20042;-84
2021/12/02 05:30:12;;;;;;;1.13;0.75;;;;;;;;;;5026981;28;20058;-83
2021/12/02 05:32:38;;;;;;;2.88;0.98;;;;;;;;;;5025797;28;20571;-87
2021/12/02 05:35:04;;;;;;;3.42;1.20;;;;;;;;;;5022083;28;20041;-83
2021/12/02 05:37:30;;;;;;;2.30;0.77;;;;;;;;;;5023296;28;20473;-84
2021/12/02 05:39:56;;;;;;;3.03;0.98;;;;;;;;;;5017993;28;20028;-85
2021/12/02 05:42:22;;;;;;;3.05;0.82;;;;;;;;;;5030666;28;20037;-82
2021/12/02 05:44:48;;;;;;;0.80;0.80;;;;;;;;;;5034075;28;20073;-82
2021/12/02 05:47:14;;;;;;;3.00;1.25;;;;;;;;;;5019536;28;20030;-83
2021/12/02 05:49:40;;;;;;;2.45;1.02;;;;;;;;;;5038288;28;20041;-84
2021/12/02 05:52:07;;;;;;;3.33;0.90;;;;;;;;;;5030129;28;20046;-83
2021/12/02 05:54:33;;;;;;;3.28;1.05;;;;;;;;;;5018768;28;20045;-84
2021/12/02 05:56:59;;;;;;;3.97;0.75;;;;;;;;;;5022960;28;20030;-83
2021/12/02 05:59:25;;;;;;;4.65;1.05;;;;;;;;;;5021531;28;20039;-83
2021/12/02 06:01:51;;;;;;;0.88;0.80;;;;;;;;;;5023078;28;20042;-82
2021/12/02 06:04:17;;;;;;;5.95;1.20;;;;;;;;;;5011091;28;20042;-83
2021/12/02 06:06:43;;;;;;;1.33;0.85;;;;;;;;;;5011592;28;20053;-82
2021/12/02 06:09:09;;;;;;;1.65;0.80;;;;;;;;;;5018358;28;20038;-82
2021/12/02 06:11:35;;;;;;;4.10;1.27;;;;;;;;;;5023076;28;20599;-85
2021/12/02 06:14:03;;;;;;;1.23;0.93;;;;;;;;;;5013792;28;20037;-81
2021/12/02 06:16:29;;;;;;;7.05;3.45;;;;;;;;;;5013713;28;20038;-81
2021/12/02 06:18:55;;;;;;;10.40;3.33;;;;;;;;;;5016898;28;20034;-82
2021/12/02 06:21:21;;;;;;;3.85;1.10;;;;;;;;;;5030962;28;20032;-83
2021/12/02 06:23:47;;;;;;;1.92;1.00;;;;;;;;;;5040500;28;20042;-80
2021/12/02 06:26:13;;;;;;;1.80;0.90;;;;;;;;;;5032285;28;20073;-81
2021/12/02 06:28:39;;;;;;;2.10;0.88;;;;;;;;;;5020850;28;20042;-80
2021/12/02 06:31:06;;;;;;;3.53;1.08;;;;;;;;;;5029274;28;20033;-82
2021/12/02 06:33:35;;;;;;;2.15;0.88;;;;;;;;;;5035150;28;20038;-80
2021/12/02 06:36:00;;;;;;;2.53;1.10;;;;;;;;;;5040841;28;20030;-83
2021/12/02 06:38:26;;;;;;;3.30;1.05;;;;;;;;;;5042537;28;20029;-82
2021/12/02 06:40:52;;;;;;;4.47;1.40;;;;;;;;;;5032719;28;20033;-83
2021/12/02 06:43:19;;;;;;;3.42;1.10;;;;;;;;;;5016978;28;20037;-81
2021/12/02 06:45:45;;;;;;;1.92;0.98;;;;;;;;;;5012103;28;20038;-80
2021/12/02 06:48:11;;;;;;;4.53;1.50;;;;;;;;;;5015334;28;20041;-84
2021/12/02 06:50:38;;;;;;;3.92;1.00;;;;;;;;;;5014384;28;20037;-81
2021/12/02 06:53:05;;;;;;;3.83;1.42;;;;;;;;;;5010176;28;20041;-81
2021/12/02 06:55:36;;;;;;;11.65;5.95;;;;;;;;;;5013784;28;20037;-82
2021/12/02 06:58:02;;;;;;;9.18;3.50;;;;;;;;;;5008669;28;20399;-82
2021/12/02 07:00:28;;;;;;;16.05;6.90;;;;;;;;;;5007354;28;20037;-82
2021/12/02 07:02:55;;;;;;;9.20;2.85;;;;;;;;;;5007690;28;20045;-82
2021/12/02 07:05:21;;;;;;;7.05;1.50;;;;;;;;;;5011100;28;20480;-82
2021/12/02 07:07:47;;;;;;;3.22;1.30;;;;;;;;;;5011286;28;20045;-82
2021/12/02 07:10:23;;;;;;;4.30;1.15;;;;;;;;;;5010606;28;20037;-82
2021/12/02 07:12:55;;;;;;;1.80;1.30;;;;;;;;;;5009504;28;20049;-82
2021/12/02 07:15:27;;;;;;;3.83;1.40;;;;;;;;;;5010423;28;20044;-82
2021/12/02 07:17:58;;;;;;;7.88;1.42;;;;;;;;;;5010516;28;20381;-82
2021/12/02 07:20:30;;;;;;;2.67;1.38;;;;;;;;;;5018889;28;20437;-83
2021/12/02 07:22:59;;;;;;;5.07;1.33;;;;;;;;;;5019643;28;20056;-83
2021/12/02 07:25:26;;;;;;;2.58;1.30;;;;;;;;;;5023167;28;20041;-83
2021/12/02 07:27:52;;;;;;;5.28;1.40;;;;;;;;;;5029943;28;20029;-83
2021/12/02 07:30:18;;;;;;;5.45;1.40;;;;;;;;;;5010813;28;20037;-84
2021/12/02 07:32:50;;;;;;;4.57;1.58;;;;;;;;;;5009125;28;20054;-82
2021/12/02 07:35:16;;;;;;;4.40;1.40;;;;;;;;;;5010919;28;20042;-82
2021/12/02 07:37:50;;;;;;;2.70;1.40;;;;;;;;;;5011044;28;20491;-83
2021/12/02 07:40:18;;;;;;;2.75;1.40;;;;;;;;;;5013569;28;20491;-84
2021/12/02 07:42:45;;;;;;;3.58;1.27;;;;;;;;;;5012647;28;20057;-83
2021/12/02 07:45:12;;;;;;;1.85;1.13;;;;;;;;;;5011521;28;20034;-83
2021/12/02 07:47:40;;;;;;;3.63;1.60;;;;;;;;;;5010488;28;20044;-82
2021/12/02 07:50:08;;;;;;;2.15;1.30;;;;;;;;;;5010817;28;20523;-82
2021/12/02 07:52:35;;;;;;;1.75;1.30;;;;;;;;;;5017380;28;20048;-82
2021/12/02 07:55:07;;;;;;;3.60;1.60;;;;;;;;;;5034310;28;20045;-81
2021/12/02 07:57:34;;;;;;;3.78;1.63;;;;;;;;;;5019540;28;20046;-82
2021/12/02 08:00:01;;;;;;;36.72;18.02;;;;;;;;;;5030108;28;20029;-81
2021/12/02 08:02:33;;;;;;;10.13;4.78;;;;;;;;;;5014031;28;20407;-82
2021/12/02 08:05:00;;;;;;;3.35;1.80;;;;;;;;;;5013300;28;20373;-82
2021/12/02 08:07:26;;;;;;;3.40;1.50;;;;;;;;;;5014119;28;20049;-82
2021/12/02 08:09:52;;;;;;;5.05;1.60;;;;;;;;;;5012489;28;20038;-82
2021/12/02 08:12:17;;;;;;;2.50;1.40;;;;;;;;;;5014097;28;20060;-82
2021/12/02 08:14:43;;;;;;;3.20;1.65;;;;;;;;;;5029541;28;20063;-83
2021/12/02 08:17:09;;;;;;;6.95;1.75;;;;;;;;;;5018802;28;20038;-82
2021/12/02 08:19:35;;;;;;;4.68;1.75;;;;;;;;;;5015632;28;20030;-83
2021/12/02 08:22:01;;;;;;;4.45;1.60;;;;;;;;;;5015245;28;20038;-82
2021/12/02 08:24:27;;;;;;;3.08;1.65;;;;;;;;;;5020483;28;20484;-85
2021/12/02 08:26:54;;;;;;;3.40;1.65;;;;;;;;;;5023135;28;20041;-84
2021/12/02 08:29:21;;;;;;;3.90;1.70;;;;;;;;;;5008102;28;20034;-83
2021/12/02 08:31:48;;;;;;;3.80;1.60;;;;;;;;;;5029115;28;20049;-86
2021/12/02 08:34:16;;;;;;;2.88;1.52;;;;;;;;;;5029017;28;20049;-85
2021/12/02 08:37:00;;;;;;;3.03;1.63;;;;;;;;;;5022754;28;20431;-85
2021/12/02 08:39:30;;;;;;;3.55;1.60;;;;;;;;;;5017345;28;20029;-83
2021/12/02 08:41:57;;;;;;;28.00;13.52;;;;;;;;;;4997104;28;20045;-83
2021/12/02 08:44:30;;;;;;;16.13;7.55;;;;;;;;;;5012995;28;20034;-84
2021/12/02 08:46:56;;;;;;;4.75;2.13;;;;;;;;;;5011771;28;20046;-83
2021/12/02 08:49:23;;;;;;;3.85;2.13;;;;;;;;;;5013610;28;20060;-87
2021/12/02 08:51:51;;;;;;;5.18;1.90;;;;;;;;;;5013080;28;20038;-84
2021/12/02 08:54:18;;;;;;;4.05;2.30;;;;;;;;;;5012481;28;20053;-84
2021/12/02 08:56:45;;;;;;;5.90;2.00;;;;;;;;;;5013372;28;20074;-81
2021/12/02 08:59:11;;;;;;;6.07;2.00;;;;;;;;;;5011095;28;20093;-82
2021/12/02 09:01:37;;;;;;;5.78;1.95;;;;;;;;;;5011515;28;20053;-82
2021/12/02 09:04:04;;;;;;;2.50;1.90;;;;;;;;;;5010452;28;20041;-82
2021/12/02 09:06:30;;;;;;;3.28;1.70;;;;;;;;;;5013423;28;20041;-82
2021/12/02 09:08:58;;;;;;;6.38;2.10;;;;;;;;;;5015327;28;20420;-83
2021/12/02 09:11:29;;;;;;;5.13;1.90;;;;;;;;;;5028391;28;20045;-80
2021/12/02 09:14:01;;;;;;;9.52;2.25;;;;;;;;;;5032830;28;20053;-82
2021/12/02 09:16:29;;;;;;;4.05;1.90;;;;;;;;;;5015621;28;20048;-79
2021/12/02 09:18:55;;;;;;;4.05;1.95;;;;;;;;;;5012818;28;20049;-80
2021/12/02 09:21:22;;;;;;;2.88;1.60;;;;;;;;;;5012242;28;20030;-81
2021/12/02 09:23:48;;;;;;;4.18;2.10;;;;;;;;;;5013878;28;20042;-81
2021/12/02 09:26:15;;;;;;;3.50;1.65;;;;;;;;;;4997228;28;20046;-81
2021/12/02 09:28:41;;;;;;;24.70;10.43;;;;;;;;;;5010372;28;20042;-80
2021/12/02 09:31:07;;;;;;;20.45;9.50;;;;;;;;;;5016659;28;20048;-83
2021/12/02 09:33:34;;;;;;;5.97;2.20;;;;;;;;;;5015165;28;20052;-82
2021/12/02 09:36:01;;;;;;;3.45;1.40;;;;;;;;;;5013966;28;20511;-84
2021/12/02 09:38:26;;;;;;;5.10;1.80;;;;;;;;;;5014586;28;20096;-84
2021/12/02 09:40:52;;;;;;;2.13;1.50;;;;;;;;;;5014210;28;20504;-83
2021/12/02 09:43:18;;;;;;;3.72;1.60;;;;;;;;;;5015197;28;20058;-82
2021/12/02 09:45:44;;;;;;;1.95;1.40;;;;;;;;;;5017643;28;20117;-83
2021/12/02 09:48:11;;;;;;;5.28;1.42;;;;;;;;;;5023362;28;20034;-84
2021/12/02 09:50:50;;;;;;;5.30;1.52;;;;;;;;;;5023455;28;20094;-83
2021/12/02 09:53:19;;;;;;;1.90;1.20;;;;;;;;;;5014289;28;20464;-83
2021/12/02 09:58:26;;;;;;;4.65;1.30;;;;;;;;;;5015533;28;20026;-83
2021/12/02 10:03:29;;;;;;;4.40;1.92;;;;;;;;;;5045879;28;20026;-85
2021/12/02 10:06:05;;;;;;;2.70;1.20;;;;;;;;;;5039197;28;20046;-87
2021/12/02 10:08:42;;;;;;;2.90;1.25;;;;;;;;;;5043336;28;20044;-85
2021/12/02 10:11:15;;;;;;;3.55;1.40;;;;;;;;;;5041188;28;20045;-85
2021/12/02 10:19:19;;;;;;;8.77;3.55;;;;;;;;;;5017613;28;20026;-80
2021/12/02 10:21:47;;;;;;;3.65;1.50;;;;;;;;;;5010768;28;20033;-79
2021/12/02 10:24:18;;;;;;;3.50;1.35;;;;;;;;;;5011832;28;20042;-80
2021/12/02 10:26:58;;;;;;;2.78;1.30;;;;;;;;;;5014397;28;20042;-80
2021/12/02 10:29:28;;;;;;;4.03;1.27;;;;;;;;;;5010398;28;20038;-80
2021/12/02 10:32:20;;;;;;;2.58;1.10;;;;;;;;;;5010315;28;20041;-80
2021/12/02 10:34:46;;;;;;;3.55;1.63;;;;;;;;;;5025038;28;20045;-81
2021/12/02 10:37:12;;;;;;;3.05;1.35;;;;;;;;;;5011285;28;20053;-80
2021/12/02 10:39:38;;;;;;;5.65;1.45;;;;;;;;;;5011828;28;20033;-80
2021/12/02 10:42:06;;;;;;;3.03;1.50;;;;;;;;;;5010903;28;20073;-81
2021/12/02 10:44:35;;;;;;;3.13;1.35;;;;;;;;;;5011556;28;20503;-80
2021/12/02 10:47:10;;;;;;;3.63;1.33;;;;;;;;;;5013434;28;20037;-81
2021/12/02 10:49:53;;;;;;;5.13;1.42;;;;;;;;;;5012179;28;20049;-80
2021/12/02 10:52:28;;;;;;;2.00;1.10;;;;;;;;;;5018652;28;20041;-80
2021/12/02 10:55:05;;;;;;;2.60;1.67;;;;;;;;;;5013509;28;20060;-79
2021/12/02 10:57:33;;;;;;;3.70;1.50;;;;;;;;;;5019338;28;20037;-80
2021/12/02 11:00:01;;;;;;;1.75;1.23;;;;;;;;;;5022181;28;20494;-79
2021/12/02 11:02:30;;;;;;;4.22;1.38;;;;;;;;;;5013740;28;20044;-80
2021/12/02 11:05:04;;;;;;;2.92;1.33;;;;;;;;;;5022419;28;20060;-80
2021/12/02 11:07:33;;;;;;;10.15;2.90;;;;;;;;;;5031161;28;20068;-80
2021/12/02 11:10:01;;;;;;;20.25;10.10;;;;;;;;;;5031136;28;20034;-80
2021/12/02 11:12:30;;;;;;;7.95;2.15;;;;;;;;;;5019736;28;20038;-80
2021/12/02 11:14:58;;;;;;;3.17;1.23;;;;;;;;;;5011187;28;20519;-80
2021/12/02 11:17:29;;;;;;;2.15;1.00;;;;;;;;;;5010666;28;20042;-80
2021/12/02 11:19:57;;;;;;;3.95;1.45;;;;;;;;;;5010655;28;20519;-81
2021/12/02 11:22:25;;;;;;;4.80;1.23;;;;;;;;;;5010963;28;20045;-79
2021/12/02 11:24:52;;;;;;;2.97;1.17;;;;;;;;;;5011757;28;20080;-80
2021/12/02 11:27:28;;;;;;;3.42;1.30;;;;;;;;;;5005875;28;20052;-81
2021/12/02 11:30:00;;;;;;;1.88;1.08;;;;;;;;;;5011026;28;20045;-81
2021/12/02 11:32:33;;;;;;;3.30;1.30;;;;;;;;;;5024550;28;20061;-81
2021/12/02 11:35:08;;;;;;;2.72;1.13;;;;;;;;;;5010199;28;20514;-80
2021/12/02 11:37:39;;;;;;;5.10;1.30;;;;;;;;;;5010178;28;20407;-81
2021/12/02 11:40:15;;;;;;;3.03;1.42;;;;;;;;;;4991391;28;20037;-81
2021/12/02 11:42:42;;;;;;;34.92;15.85;;;;;;;;;;4989836;28;20038;-80
2021/12/02 11:45:10;;;;;;;15.63;6.97;;;;;;;;;;4991813;28;20050;-81
2021/12/02 11:47:38;;;;;;;2.67;1.30;;;;;;;;;;4991721;28;20030;-80
2021/12/02 11:50:09;;;;;;;3.88;1.20;;;;;;;;;;4991558;28;20037;-80
2021/12/02 11:52:37;;;;;;;;;;;;;;;;;;4990619;28;20043;-79
2021/12/02 11:55:10;;;;;;;2.63;1.13;;;;;;;;;;5005628;28;20318;-81
2021/12/02 11:57:36;;;;;;;1.08;0.98;;;;;;;;;;5009331;28;20030;-81
2021/12/02 12:00:06;;;;;;;1.20;1.10;;;;;;;;;;5010710;28;20034;-81
2021/12/02 12:02:32;;;;;;;2.75;1.10;;;;;;;;;;5014718;28;20053;-80
2021/12/02 12:05:02;;;;;;;2.40;1.05;;;;;;;;;;5010932;28;20134;-81
2021/12/02 12:07:46;;;;;;;3.47;1.33;;;;;;;;;;5013013;28;20417;-73
2021/12/02 12:10:22;;;;;;;4.18;1.30;;;;;;;;;;5027166;28;20500;-72
2021/12/02 12:12:50;;;;;;;2.05;1.10;;;;;;;;;;5030526;28;20072;-76
2021/12/02 12:16:00;;;;;;;2.97;1.30;;;;;;;;;;5036196;28;20025;-84
2021/12/02 12:18:25;;;;;;;2.53;1.20;;;;;;;;;;5034680;28;20056;-84
2021/12/02 12:21:13;;;;;;;3.90;1.20;;;;;;;;;;5035019;28;20040;-84
2021/12/02 12:23:40;;;;;;;1.02;0.95;;;;;;;;;;5035078;28;20041;-83
2021/12/02 12:26:36;;;;;;;1.58;1.20;;;;;;;;;;5034040;28;20045;-81
2021/12/02 12:29:08;;;;;;;1.35;1.27;;;;;;;;;;5034575;28;20048;-83
2021/12/02 12:34:38;;;;;;;3.30;1.40;;;;;;;;;;5027341;28;20480;-83
2021/12/02 12:37:21;;;;;;;;;;;;;;;;;;5016753;28;20050;-83
2021/12/02 12:40:08;;;;;;;1.60;1.23;;;;;;;;;;5036496;28;20108;-84
2021/12/02 12:42:36;;;;;;;2.42;1.30;;;;;;;;;;5033843;28;20037;-83
2021/12/02 12:45:05;;;;;;;2.28;1.48;;;;;;;;;;5020150;28;20625;-83
2021/12/02 12:47:43;;;;;;;3.83;1.70;;;;;;;;;;5013023;28;20045;-83
2021/12/02 12:50:36;;;;;;;3.10;1.65;;;;;;;;;;5013556;28;20049;-83
2021/12/02 12:53:02;;;;;;;24.05;10.55;;;;;;;;;;5014213;28;20412;-83
2021/12/02 12:55:29;;;;;;;4.88;2.75;;;;;;;;;;5013316;28;20048;-83
2021/12/02 12:58:13;;;;;;;6.05;2.10;;;;;;;;;;5014376;28;20025;-84
2021/12/02 13:00:53;;;;;;;6.32;2.05;;;;;;;;;;5032627;28;20041;-83
2021/12/02 13:03:47;;;;;;;2.03;1.73;;;;;;;;;;5029733;28;20500;-86
2021/12/02 13:06:25;;;;;;;1.95;1.60;;;;;;;;;;4985548;28;20053;-85
2021/12/02 13:08:56;;;;;;;5.00;1.90;;;;;;;;;;5011394;28;20034;-88
2021/12/02 13:11:24;;;;;;;3.15;1.70;;;;;;;;;;5020721;28;20408;-85
2021/12/02 13:13:52;;;;;;;1.98;1.42;;;;;;;;;;5020075;28;20041;-85
2021/12/02 13:16:21;;;;;;;2.17;1.52;;;;;;;;;;5018782;28;20041;-86
2021/12/02 13:18:57;;;;;;;2.78;1.70;;;;;;;;;;5015654;28;20488;-84
2021/12/02 13:21:29;;;;;;;2.20;1.50;;;;;;;;;;5005107;28;20049;-78
2021/12/02 13:23:59;;;;;;;2.75;1.40;;;;;;;;;;5016008;28;20056;-78
2021/12/02 13:26:30;;;;;;;2.38;1.52;;;;;;;;;;5014116;28;20404;-77
2021/12/02 13:29:03;;;;;;;2.40;1.42;;;;;;;;;;5012399;28;20030;-78
2021/12/02 13:31:30;;;;;;;3.55;1.70;;;;;;;;;;5017753;28;20049;-81
2021/12/02 13:33:59;;;;;;;3.83;1.50;;;;;;;;;;5038403;28;20033;-80
2021/12/02 13:36:31;;;;;;;2.00;1.38;;;;;;;;;;5022955;28;20044;-78
2021/12/02 13:39:13;;;;;;;3.65;1.45;;;;;;;;;;5038245;28;20131;-80
2021/12/02 13:42:12;;;;;;;1.98;1.42;;;;;;;;;;5020118;28;20042;-80
2021/12/02 13:44:51;;;;;;;3.30;1.98;;;;;;;;;;5013673;28;20412;-79
2021/12/02 13:47:20;;;;;;;1.85;1.02;;;;;;;;;;5013186;28;20053;-80
2021/12/02 13:49:55;;;;;;;4.40;2.00;;;;;;;;;;5011268;28;20057;-80
2021/12/02 13:55:21;;;;;;;2.53;1.20;;;;;;;;;;5010103;28;20084;-80
2021/12/02 13:58:04;;;;;;;3.50;1.35;;;;;;;;;;5012348;28;20041;-80
2021/12/02 14:00:32;;;;;;;1.42;1.15;;;;;;;;;;5012250;28;20038;-79
2021/12/02 14:03:00;;;;;;;3.15;1.33;;;;;;;;;;5011609;28;20065;-80
2021/12/02 14:05:28;;;;;;;1.30;1.20;;;;;;;;;;5011763;28;20046;-80
2021/12/02 14:07:57;;;;;;;2.83;1.40;;;;;;;;;;5036288;28;20045;-81
2021/12/02 14:10:25;;;;;;;3.42;1.40;;;;;;;;;;5013929;28;20380;-81
2021/12/02 14:13:08;;;;;;;2.90;1.50;;;;;;;;;;5017452;28;20050;-86
2021/12/02 14:15:39;;;;;;;2.47;1.38;;;;;;;;;;5043190;28;20045;-86
2021/12/02 14:18:22;;;;;;;3.30;1.40;;;;;;;;;;5015031;28;20041;-82
2021/12/02 14:21:03;;;;;;;4.32;1.50;;;;;;;;;;5017598;28;20034;-81
2021/12/02 14:23:36;;;;;;;2.67;1.40;;;;;;;;;;5020014;28;20372;-81
2021/12/02 14:26:14;;;;;;;8.10;1.60;;;;;;;;;;5019148;28;20526;-82
2021/12/02 14:28:45;;;;;;;4.32;1.50;;;;;;;;;;5009942;28;20045;-82
2021/12/02 14:31:33;;;;;;;3.88;1.50;;;;;;;;;;5023150;28;20033;-84
2021/12/02 14:34:03;;;;;;;4.85;1.95;;;;;;;;;;5014763;28;20042;-86
2021/12/02 14:36:42;;;;;;;2.83;1.50;;;;;;;;;;5014248;28;20047;-83
2021/12/02 14:39:11;;;;;;;5.20;1.90;;;;;;;;;;5011485;28;20041;-83
2021/12/02 14:41:41;;;;;;;2.10;1.40;;;;;;;;;;5010607;28;20484;-82
2021/12/02 14:44:13;;;;;;;6.72;1.58;;;;;;;;;;5000219;28;20059;-82
2021/12/02 14:46:41;;;;;;;1.77;1.40;;;;;;;;;;5010094;28;20033;-86
2021/12/02 14:49:11;;;;;;;2.97;1.60;;;;;;;;;;5027940;28;20037;-83
2021/12/02 14:51:54;;;;;;;3.50;1.52;;;;;;;;;;5013174;28;20034;-83
2021/12/02 14:54:38;;;;;;;3.47;1.48;;;;;;;;;;5012981;28;20048;-84
2021/12/02 14:57:18;;;;;;;5.45;2.00;;;;;;;;;;5027727;28;20029;-82
2021/12/02 14:59:54;;;;;;;5.50;2.00;;;;;;;;;;5030236;28;20044;-82
2021/12/02 15:02:29;;;;;;;4.38;1.85;;;;;;;;;;5044918;28;20044;-82
2021/12/02 15:05:02;;;;;;;3.05;1.67;;;;;;;;;;5032126;28;20083;-81
2021/12/02 15:07:43;;;;;;;2.42;1.40;;;;;;;;;;5033214;28;20042;-83
2021/12/02 15:10:13;;;;;;;3.50;1.50;;;;;;;;;;5031783;28;20388;-82
2021/12/02 15:12:42;;;;;;;2.40;1.35;;;;;;;;;;5022391;28;20579;-82
2021/12/02 15:15:13;;;;;;;4.82;1.20;;;;;;;;;;5011899;28;20042;-82
2021/12/02 15:17:45;;;;;;;;;;;;;;;;;;5012884;28;20045;-81
2021/12/02 15:20:31;;;;;;;1.98;1.38;;;;;;;;;;5016467;28;20473;-83
2021/12/02 15:23:20;;;;;;;3.28;2.33;;;;;;;;;;5032798;28;20057;-83
2021/12/02 15:25:56;;;;;;;4.80;2.53;;;;;;;;;;5048519;28;20040;-80
2021/12/02 15:28:26;;;;;;;4.80;2.20;;;;;;;;;;5033191;28;20383;-82
2021/12/02 15:30:59;;;;;;;7.60;2.10;;;;;;;;;;5033598;28;20038;-83
2021/12/02 15:33:30;;;;;;;3.40;1.48;;;;;;;;;;5033923;28;20041;-85
2021/12/02 15:35:58;;;;;;;5.28;1.52;;;;;;;;;;5013145;28;20404;-81